createdAt,value
2019-05-22T00:01:22.179Z,97.50
2019-05-22T00:04:07.172Z,97.40
2019-05-22T00:06:41.730Z,97.50
2019-05-22T00:09:19.882Z,97.20
2019-05-22T00:11:52.283Z,96.90
2019-05-22T00:14:24.739Z,97.00
2019-05-22T00:16:54.735Z,97.20
2019-05-22T00:19:27.072Z,97.80
2019-05-22T00:22:07.832Z,97.20
2019-05-22T00:24:39.793Z,96.60
2019-05-22T00:27:15.819Z,97.60
2019-05-22T00:29:47.038Z,96.20
2019-05-22T00:32:18.307Z,97.50
2019-05-22T00:34:49.236Z,97.20
2019-05-22T00:37:26.475Z,97.90
2019-05-22T00:39:58.125Z,97.70
2019-05-22T00:42:28.107Z,98.30
2019-05-22T00:44:59.061Z,98.30
2019-05-22T00:47:33.987Z,97.40
2019-05-22T00:50:08.794Z,97.90
2019-05-22T00:52:45.362Z,98.80
2019-05-22T00:55:37.827Z,99.10
2019-05-22T00:58:14.076Z,97.70
2019-05-22T01:00:50.644Z,99.20
2019-05-22T01:03:22.917Z,98.90
2019-05-22T01:05:54.580Z,96.30
2019-05-22T01:08:28.207Z,99.60
2019-05-22T01:11:00.353Z,99.10
2019-05-22T01:13:33.310Z,97.60
2019-05-22T01:16:14.804Z,98.60
2019-05-22T01:18:47.017Z,99.80
2019-05-22T01:21:24.849Z,99.90
2019-05-22T01:23:59.969Z,99.80
2019-05-22T01:26:32.464Z,99.50
2019-05-22T01:29:04.515Z,99.90
2019-05-22T01:31:39.614Z,99.70
2019-05-22T01:34:24.145Z,97.70
2019-05-22T01:37:08.284Z,98.40
2019-05-22T01:39:59.016Z,98.70
2019-05-22T01:42:45.537Z,97.70
2019-05-22T01:45:18.911Z,97.50
2019-05-22T01:47:57.145Z,98.50
2019-05-22T01:50:41.424Z,98.90
2019-05-22T01:53:17.166Z,98.50
2019-05-22T01:55:48.830Z,98.30
2019-05-22T01:58:20.971Z,97.80
2019-05-22T02:00:55.466Z,98.90
2019-05-22T02:03:26.942Z,96.70
2019-05-22T02:05:58.214Z,97.80
2019-05-22T02:08:30.162Z,97.90
2019-05-22T02:11:02.056Z,97.40
2019-05-22T02:13:38.277Z,98.80
2019-05-22T02:16:11.690Z,98.50
2019-05-22T02:18:43.488Z,98.10
2019-05-22T02:21:13.957Z,99.90
2019-05-22T02:23:44.140Z,97.70
2019-05-22T02:26:16.604Z,98.50
2019-05-22T02:28:46.811Z,99.80
2019-05-22T02:31:18.465Z,99.90
2019-05-22T02:34:07.417Z,99.90
2019-05-22T02:36:39.718Z,99.20
2019-05-22T02:39:23.859Z,98.50
2019-05-22T02:41:56.938Z,99.10
2019-05-22T02:44:27.192Z,99.80
2019-05-22T02:47:16.890Z,99.50
2019-05-22T02:49:32.335Z,99.20
2019-05-22T02:52:03.777Z,98.80
2019-05-22T02:54:34.152Z,98.80
2019-05-22T02:57:04.988Z,98.80
2019-05-22T02:59:36.912Z,99.40
2019-05-22T03:02:06.978Z,98.60
2019-05-22T03:04:58.285Z,97.80
2019-05-22T03:07:29.787Z,99.80
2019-05-22T03:10:01.259Z,97.90
2019-05-22T03:12:33.321Z,99.90
2019-05-22T03:15:04.891Z,99.90
2019-05-22T03:17:35.343Z,99.90
2019-05-22T03:20:17.187Z,99.90
2019-05-22T03:22:59.717Z,99.90
2019-05-22T03:25:32.656Z,99.80
2019-05-22T03:28:04.797Z,99.90
2019-05-22T03:30:39.767Z,99.90
2019-05-22T03:33:10.707Z,99.90
2019-05-22T03:35:47.260Z,99.90
2019-05-22T03:38:19.306Z,99.30
2019-05-22T03:40:52.259Z,99.90
2019-05-22T03:43:24.920Z,99.90
2019-05-22T03:45:56.270Z,98.70
2019-05-22T03:48:28.586Z,99.40
2019-05-22T03:51:08.666Z,99.10
2019-05-22T03:53:42.281Z,99.90
2019-05-22T03:56:13.043Z,99.90
2019-05-22T03:58:43.130Z,99.90
2019-05-22T04:01:21.921Z,99.90
2019-05-22T04:03:53.024Z,99.90
2019-05-22T04:06:24.163Z,99.80
2019-05-22T04:09:13.450Z,99.90
2019-05-22T04:11:46.558Z,99.90
2019-05-22T04:14:17.078Z,99.90
2019-05-22T04:16:48.966Z,99.30
2019-05-22T04:19:18.830Z,99.90
2019-05-22T04:21:48.925Z,99.90
2019-05-22T04:24:19.651Z,99.90
2019-05-22T04:26:50.376Z,99.90
2019-05-22T04:29:21.431Z,99.90
2019-05-22T04:32:01.913Z,99.90
2019-05-22T04:34:32.916Z,99.30
2019-05-22T04:37:12.974Z,98.50
2019-05-22T04:39:44.278Z,98.70
2019-05-22T04:42:15.999Z,98.80
2019-05-22T04:45:09.180Z,98.10
2019-05-22T04:47:40.756Z,99.00
2019-05-22T04:50:11.749Z,98.90
2019-05-22T04:52:41.859Z,98.70
2019-05-22T04:55:13.338Z,99.30
2019-05-22T04:57:43.606Z,99.90
2019-05-22T05:00:14.768Z,99.90
2019-05-22T05:02:44.591Z,99.90
2019-05-22T05:05:15.276Z,99.90
2019-05-22T05:07:46.956Z,99.90
2019-05-22T05:10:17.660Z,99.90
2019-05-22T05:12:48.481Z,99.90
2019-05-22T05:15:18.082Z,98.80
2019-05-22T05:17:48.083Z,99.90
2019-05-22T05:20:22.415Z,99.60
2019-05-22T05:22:51.827Z,99.30
2019-05-22T05:25:22.304Z,98.50
2019-05-22T05:28:11.134Z,99.00
2019-05-22T05:30:51.309Z,98.60
2019-05-22T05:33:56.611Z,98.70
2019-05-22T05:36:26.197Z,98.50
2019-05-22T05:38:56.021Z,98.40
2019-05-22T05:41:25.619Z,98.40
2019-05-22T05:43:55.228Z,98.90
2019-05-22T05:46:25.812Z,99.40
2019-05-22T05:48:57.534Z,99.20
2019-05-22T05:51:30.354Z,98.00
2019-05-22T05:54:07.382Z,99.50
2019-05-22T05:56:39.466Z,98.80
2019-05-22T05:59:10.191Z,98.10
2019-05-22T06:01:44.083Z,97.90
2019-05-22T06:04:16.104Z,98.80
2019-05-22T06:07:22.199Z,99.30
2019-05-22T06:10:22.242Z,97.90
2019-05-22T06:12:52.802Z,98.30
2019-05-22T06:15:25.759Z,97.80
2019-05-22T06:18:34.768Z,98.10
2019-05-22T06:21:06.227Z,98.00
2019-05-22T06:24:11.325Z,97.20
2019-05-22T06:27:02.464Z,98.30
2019-05-22T06:29:53.904Z,97.90
2019-05-22T06:33:01.630Z,97.70
2019-05-22T06:35:38.689Z,97.20
2019-05-22T06:38:25.372Z,97.90
2019-05-22T06:40:55.531Z,97.50
2019-05-22T06:44:37.603Z,97.80
2019-05-22T06:47:09.359Z,98.10
2019-05-22T06:49:57.221Z,97.30
2019-05-22T06:52:27.637Z,97.90
2019-05-22T06:54:58.537Z,97.60
2019-05-22T06:57:29.622Z,97.30
2019-05-22T07:00:12.992Z,97.10
2019-05-22T07:02:36.860Z,97.30
2019-05-22T07:05:08.716Z,97.00
2019-05-22T07:07:40.170Z,98.30
2019-05-22T07:10:12.904Z,98.40
2019-05-22T07:12:50.288Z,98.20
2019-05-22T07:15:40.937Z,98.50
2019-05-22T07:18:13.239Z,97.20
2019-05-22T07:20:43.942Z,97.80
2019-05-22T07:23:15.096Z,97.80
2019-05-22T07:25:47.258Z,97.20
2019-05-22T07:28:20.676Z,96.70
2019-05-22T07:30:51.664Z,97.00
2019-05-22T07:33:22.163Z,97.10
2019-05-22T07:36:08.430Z,97.50
2019-05-22T07:38:24.274Z,97.10
2019-05-22T07:40:53.997Z,97.00
2019-05-22T07:43:24.506Z,96.60
2019-05-22T07:45:55.854Z,95.90
2019-05-22T07:48:34.830Z,96.40
2019-05-22T07:51:14.586Z,95.90
2019-05-22T07:53:47.548Z,96.00
2019-05-22T07:56:18.493Z,95.50
2019-05-22T07:58:48.783Z,95.00
2019-05-22T08:01:19.373Z,94.50
2019-05-22T08:03:49.473Z,94.30
2019-05-22T08:06:19.571Z,93.30
2019-05-22T08:08:50.435Z,93.50
2019-05-22T08:11:21.060Z,93.80
2019-05-22T08:13:52.180Z,93.00
2019-05-22T08:16:22.452Z,92.80
2019-05-22T08:18:52.497Z,93.00
2019-05-22T08:21:23.841Z,94.00
2019-05-22T08:23:55.724Z,93.00
2019-05-22T08:26:27.117Z,93.50
2019-05-22T08:28:58.856Z,93.90
2019-05-22T08:31:29.808Z,91.50
2019-05-22T08:34:00.401Z,92.40
2019-05-22T08:36:31.140Z,91.80
2019-05-22T08:39:02.622Z,92.60
2019-05-22T08:41:36.357Z,91.10
2019-05-22T08:44:17.584Z,91.40
2019-05-22T08:46:40.353Z,91.40
2019-05-22T08:49:13.275Z,90.70
2019-05-22T08:51:43.201Z,91.60
2019-05-22T08:54:14.814Z,92.20
2019-05-22T08:56:49.139Z,91.80
2019-05-22T08:59:20.370Z,91.10
2019-05-22T09:01:51.577Z,91.10
2019-05-22T09:04:22.042Z,91.90
2019-05-22T09:06:51.866Z,91.00
2019-05-22T09:09:22.267Z,90.30
2019-05-22T09:11:52.184Z,92.60
2019-05-22T09:14:22.187Z,91.10
2019-05-22T09:16:53.710Z,89.60
2019-05-22T09:19:23.540Z,90.20
2019-05-22T09:21:54.079Z,90.50
2019-05-22T09:24:26.023Z,89.90
2019-05-22T09:26:56.835Z,90.20
2019-05-22T09:29:26.946Z,89.10
2019-05-22T09:31:57.136Z,88.70
2019-05-22T09:34:27.469Z,91.50
2019-05-22T09:36:57.145Z,89.60
2019-05-22T09:39:27.718Z,90.70
2019-05-22T09:41:58.009Z,91.40
2019-05-22T09:44:28.220Z,90.40
2019-05-22T09:46:58.187Z,92.60
2019-05-22T09:49:32.779Z,92.60
2019-05-22T09:52:03.544Z,90.30
2019-05-22T09:54:33.734Z,90.40
2019-05-22T09:57:04.152Z,89.90
2019-05-22T09:59:35.255Z,90.80
2019-05-22T10:02:05.460Z,90.40
2019-05-22T10:04:36.220Z,89.00
2019-05-22T10:07:06.661Z,90.80
2019-05-22T10:09:37.028Z,89.10
2019-05-22T10:12:08.054Z,89.70
2019-05-22T10:14:38.624Z,89.60
2019-05-22T10:17:12.221Z,88.70
2019-05-22T10:19:41.836Z,87.60
2019-05-22T10:22:12.319Z,86.70
2019-05-22T10:24:43.957Z,89.80
2019-05-22T10:27:13.870Z,85.10
2019-05-22T10:29:44.603Z,88.40
2019-05-22T10:32:14.499Z,87.60
2019-05-22T10:34:44.375Z,87.00
2019-05-22T10:37:15.209Z,84.50
2019-05-22T10:39:45.922Z,84.70
2019-05-22T10:42:16.134Z,83.60
2019-05-22T10:44:46.231Z,84.10
2019-05-22T10:47:18.589Z,84.70
2019-05-22T10:49:48.422Z,80.90
2019-05-22T10:52:19.002Z,83.60
2019-05-22T10:54:48.971Z,81.40
2019-05-22T10:57:18.818Z,80.00
2019-05-22T10:59:48.609Z,83.00
2019-05-22T11:02:19.080Z,82.90
2019-05-22T11:04:49.721Z,80.20
2019-05-22T11:07:20.665Z,85.20
2019-05-22T11:09:51.143Z,79.60
2019-05-22T11:12:40.327Z,84.40
2019-05-22T11:15:10.208Z,80.30
2019-05-22T11:17:41.110Z,83.10
2019-05-22T11:20:12.574Z,80.90
2019-05-22T11:22:42.701Z,80.60
2019-05-22T11:25:16.054Z,78.80
2019-05-22T11:27:46.841Z,81.40
2019-05-22T11:30:19.351Z,78.90
2019-05-22T11:32:49.606Z,79.90
2019-05-22T11:35:20.779Z,77.40
2019-05-22T11:37:51.075Z,79.00
2019-05-22T11:40:22.186Z,77.50
2019-05-22T11:42:52.882Z,73.90
2019-05-22T11:45:24.001Z,75.30
2019-05-22T11:47:55.124Z,76.20
2019-05-22T11:50:25.837Z,74.50
2019-05-22T11:52:56.037Z,70.50
2019-05-22T11:55:47.447Z,74.70
2019-05-22T11:58:41.644Z,72.80
2019-05-22T12:01:23.320Z,76.30
2019-05-22T12:03:54.825Z,72.80
2019-05-22T12:06:26.257Z,76.00
2019-05-22T12:08:55.984Z,72.10
2019-05-22T12:11:27.102Z,75.30
2019-05-22T12:13:57.012Z,71.80
2019-05-22T12:16:28.417Z,71.90
2019-05-22T12:18:59.303Z,76.80
2019-05-22T12:21:29.589Z,73.90
2019-05-22T12:23:59.874Z,66.00
2019-05-22T12:26:30.764Z,74.10
2019-05-22T12:29:00.339Z,71.90
2019-05-22T12:31:30.713Z,76.10
2019-05-22T12:34:00.925Z,68.80
2019-05-22T12:36:31.086Z,73.10
2019-05-22T12:39:01.661Z,73.50
2019-05-22T12:41:32.624Z,68.40
2019-05-22T12:44:04.049Z,66.90
2019-05-22T12:46:34.892Z,68.10
2019-05-22T12:49:08.394Z,66.20
2019-05-22T12:51:36.770Z,68.00
2019-05-22T12:54:06.611Z,70.00
2019-05-22T12:56:37.312Z,65.50
2019-05-22T12:59:10.858Z,69.90
2019-05-22T13:01:41.591Z,66.70
2019-05-22T13:04:12.916Z,65.10
2019-05-22T13:06:44.652Z,65.50
2019-05-22T13:09:14.866Z,61.40
2019-05-22T13:11:45.537Z,68.10
2019-05-22T13:14:16.129Z,67.20
2019-05-22T13:16:49.089Z,67.10
2019-05-22T13:19:19.384Z,68.30
2019-05-22T13:21:52.306Z,67.90
2019-05-22T13:24:23.043Z,67.20
2019-05-22T13:26:53.887Z,72.10
2019-05-22T13:29:25.501Z,67.70
2019-05-22T13:31:56.940Z,65.90
2019-05-22T13:34:28.339Z,67.10
2019-05-22T13:36:58.612Z,70.20
2019-05-22T13:39:29.354Z,65.20
2019-05-22T13:41:59.499Z,65.70
2019-05-22T13:44:30.922Z,67.30
2019-05-22T13:47:01.466Z,65.30
2019-05-22T13:49:32.924Z,63.90
2019-05-22T13:52:03.159Z,64.20
2019-05-22T13:54:33.517Z,62.80
2019-05-22T13:57:06.403Z,59.30
2019-05-22T13:59:36.385Z,55.80
2019-05-22T14:02:06.382Z,61.20
2019-05-22T14:04:36.482Z,64.10
2019-05-22T14:07:07.853Z,60.20
2019-05-22T14:09:37.891Z,62.80
2019-05-22T14:12:09.564Z,58.90
2019-05-22T14:14:39.484Z,61.70
2019-05-22T14:17:09.992Z,59.50
2019-05-22T14:19:40.747Z,57.80
2019-05-22T14:22:10.683Z,62.30
2019-05-22T14:24:50.620Z,59.40
2019-05-22T14:27:20.902Z,55.90
2019-05-22T14:29:50.609Z,60.90
2019-05-22T14:32:29.880Z,65.40
2019-05-22T14:34:59.655Z,60.20
2019-05-22T14:37:30.667Z,59.50
2019-05-22T14:40:01.161Z,63.80
2019-05-22T14:42:31.342Z,60.30
2019-05-22T14:45:01.880Z,58.70
2019-05-22T14:47:32.088Z,63.80
2019-05-22T14:50:44.559Z,59.60
2019-05-22T14:53:15.916Z,61.00
2019-05-22T14:55:47.109Z,63.20
2019-05-22T14:58:17.872Z,61.20
2019-05-22T15:00:48.303Z,62.60
2019-05-22T15:03:19.103Z,62.60
2019-05-22T15:05:50.017Z,63.10
2019-05-22T15:08:23.394Z,64.00
2019-05-22T15:10:54.417Z,63.80
2019-05-22T15:13:25.681Z,63.60
2019-05-22T15:15:55.913Z,65.30
2019-05-22T15:18:26.433Z,63.80
2019-05-22T15:21:05.434Z,59.20
2019-05-22T15:23:36.019Z,54.80
2019-05-22T15:26:06.649Z,57.00
2019-05-22T15:28:37.908Z,56.50
2019-05-22T15:31:08.820Z,55.40
2019-05-22T15:33:39.567Z,55.90
2019-05-22T15:36:13.160Z,58.50
2019-05-22T15:38:44.392Z,60.70
2019-05-22T15:41:15.403Z,62.80
2019-05-22T15:43:52.153Z,59.60
2019-05-22T15:46:20.061Z,53.20
2019-05-22T15:48:51.931Z,63.40
2019-05-22T15:51:34.752Z,61.20
2019-05-22T15:54:08.922Z,57.00
2019-05-22T15:56:40.295Z,63.10
2019-05-22T15:59:22.113Z,67.00
2019-05-22T16:01:53.211Z,63.90
2019-05-22T16:04:23.707Z,62.30
2019-05-22T16:07:47.142Z,61.10
2019-05-22T16:10:27.618Z,60.80
2019-05-22T16:13:18.425Z,61.30
2019-05-22T16:15:51.908Z,62.50
2019-05-22T16:18:26.003Z,60.50
2019-05-22T16:20:57.513Z,62.90
2019-05-22T16:23:36.023Z,62.10
2019-05-22T16:26:08.927Z,62.90
2019-05-22T16:28:41.053Z,63.00
2019-05-22T16:31:12.767Z,58.70
2019-05-22T16:33:44.652Z,58.70
2019-05-22T16:36:16.306Z,56.20
2019-05-22T16:38:46.310Z,54.50
2019-05-22T16:41:17.827Z,57.30
2019-05-22T16:43:50.537Z,59.20
2019-05-22T16:46:21.989Z,58.60
2019-05-22T16:48:52.913Z,57.30
2019-05-22T16:51:23.498Z,59.10
2019-05-22T16:53:59.858Z,60.30
2019-05-22T16:56:31.926Z,63.80
2019-05-22T16:59:02.826Z,59.20
2019-05-22T17:01:33.691Z,61.50
2019-05-22T17:04:05.986Z,62.00
2019-05-22T17:06:35.746Z,60.00
2019-05-22T17:09:08.830Z,62.30
2019-05-22T17:11:39.484Z,63.50
2019-05-22T17:14:11.999Z,61.30
2019-05-22T17:16:58.458Z,64.50
2019-05-22T17:19:43.411Z,62.30
2019-05-22T17:22:15.743Z,60.10
2019-05-22T17:24:49.485Z,59.90
2019-05-22T17:27:23.388Z,59.70
2019-05-22T17:29:54.091Z,61.70
2019-05-22T17:32:27.379Z,55.60
2019-05-22T17:34:57.574Z,59.20
2019-05-22T17:37:28.578Z,64.10
2019-05-22T17:40:01.273Z,65.70
2019-05-22T17:42:33.058Z,60.90
2019-05-22T17:45:12.321Z,59.30
2019-05-22T17:47:42.926Z,66.30
2019-05-22T17:50:25.928Z,65.70
2019-05-22T17:52:48.373Z,60.40
2019-05-22T17:55:20.064Z,60.50
2019-05-22T17:57:50.546Z,62.90
2019-05-22T18:00:29.762Z,66.40
2019-05-22T18:03:04.325Z,63.00
2019-05-22T18:05:47.257Z,68.50
2019-05-22T18:08:22.214Z,62.20
2019-05-22T18:10:52.394Z,61.70
2019-05-22T18:13:23.962Z,65.20
2019-05-22T18:15:54.612Z,65.70
2019-05-22T18:18:24.554Z,63.20
2019-05-22T18:20:54.702Z,63.30
2019-05-22T18:23:25.738Z,69.10
2019-05-22T18:25:55.722Z,62.30
2019-05-22T18:31:56.288Z,64.40
2019-05-22T18:34:26.331Z,62.00
2019-05-22T18:36:57.856Z,64.00
2019-05-22T18:39:31.001Z,65.70
2019-05-22T18:42:01.229Z,65.10
2019-05-22T18:44:31.250Z,66.70
2019-05-22T18:47:01.681Z,69.50
2019-05-22T18:49:31.402Z,65.60
2019-05-22T18:52:01.529Z,67.80
2019-05-22T18:54:31.568Z,69.10
2019-05-22T18:57:02.110Z,68.20
2019-05-22T18:59:32.203Z,65.10
2019-05-22T19:02:02.115Z,65.40
2019-05-22T19:04:32.438Z,65.00
2019-05-22T19:07:02.427Z,66.20
2019-05-22T19:09:32.883Z,64.80
2019-05-22T19:12:02.999Z,64.60
2019-05-22T19:14:33.446Z,67.20
2019-05-22T19:17:04.905Z,72.00
2019-05-22T19:19:36.096Z,74.20
2019-05-22T19:22:06.243Z,69.90
2019-05-22T19:24:36.157Z,67.90
2019-05-22T19:27:06.288Z,67.10
2019-05-22T19:29:37.472Z,66.60
2019-05-22T19:32:07.256Z,66.80
2019-05-22T19:34:36.843Z,67.20
2019-05-22T19:37:10.948Z,67.20
2019-05-22T19:39:41.387Z,67.10
2019-05-22T19:42:11.639Z,67.50
2019-05-22T19:44:44.474Z,67.50
2019-05-22T19:47:14.390Z,67.40
2019-05-22T19:49:44.910Z,67.80
2019-05-22T19:52:16.088Z,67.90
2019-05-22T19:54:46.444Z,68.20
2019-05-22T19:57:17.623Z,68.10
2019-05-22T19:59:48.291Z,68.10
2019-05-22T20:02:18.715Z,68.60
2019-05-22T20:04:49.618Z,69.10
2019-05-22T20:07:19.829Z,69.00
2019-05-22T20:09:50.492Z,69.10
2019-05-22T20:12:24.733Z,69.50
2019-05-22T20:14:53.443Z,69.30
2019-05-22T20:17:23.508Z,69.40
2019-05-22T20:19:53.741Z,69.80
2019-05-22T20:22:24.693Z,70.00
2019-05-22T20:24:54.876Z,70.50
2019-05-22T20:27:28.034Z,70.70
2019-05-22T20:29:58.515Z,70.80
2019-05-22T20:32:30.770Z,70.90
2019-05-22T20:35:01.430Z,71.10
2019-05-22T20:37:33.597Z,71.10
2019-05-22T20:40:06.891Z,71.30
2019-05-22T20:42:38.706Z,71.50
2019-05-22T20:45:09.349Z,71.60
2019-05-22T20:47:42.279Z,72.00
2019-05-22T20:50:12.694Z,72.10
2019-05-22T20:52:44.556Z,72.30
2019-05-22T20:55:14.861Z,72.30
2019-05-22T20:57:58.218Z,72.10
2019-05-22T21:00:29.603Z,72.40
2019-05-22T21:03:04.032Z,72.20
2019-05-22T21:05:34.291Z,72.40
2019-05-22T21:08:08.051Z,72.70
2019-05-22T21:10:40.799Z,73.00
2019-05-22T21:13:20.433Z,72.70
2019-05-22T21:15:52.324Z,73.20
2019-05-22T21:18:28.367Z,72.80
2019-05-22T21:20:59.233Z,73.20
2019-05-22T21:23:50.241Z,73.50
2019-05-22T21:26:21.289Z,73.70
2019-05-22T21:28:55.828Z,74.10
2019-05-22T21:31:25.903Z,73.80
2019-05-22T21:33:57.209Z,74.00
2019-05-22T21:36:27.807Z,73.70
2019-05-22T21:38:58.152Z,73.40
2019-05-22T21:41:29.018Z,73.90
2019-05-22T21:44:04.548Z,73.90
2019-05-22T21:46:35.939Z,80.10
2019-05-22T21:49:06.583Z,88.80
2019-05-22T21:51:36.731Z,81.80
2019-05-22T21:54:07.703Z,77.50
2019-05-22T21:56:38.016Z,75.40
2019-05-22T21:59:08.881Z,76.00
2019-05-22T22:01:52.412Z,75.50
2019-05-22T22:04:27.309Z,75.40
2019-05-22T22:06:58.149Z,75.50
2019-05-22T22:09:28.039Z,75.30
2019-05-22T22:11:58.975Z,75.40
2019-05-22T22:14:30.030Z,75.30
2019-05-22T22:17:00.768Z,75.20
2019-05-22T22:19:32.090Z,75.70
2019-05-22T22:22:02.668Z,75.80
2019-05-22T22:24:33.426Z,76.00
2019-05-22T22:27:04.179Z,76.00
2019-05-22T22:29:33.908Z,76.00
2019-05-22T22:32:10.576Z,76.10
2019-05-22T22:34:47.489Z,75.80
2019-05-22T22:37:25.351Z,76.20
2019-05-22T22:39:56.690Z,76.00
2019-05-22T22:42:31.980Z,75.50
2019-05-22T22:45:05.392Z,75.70
2019-05-22T22:47:37.785Z,75.60
2019-05-22T22:50:10.259Z,82.50
2019-05-22T22:52:41.051Z,78.30
2019-05-22T22:55:14.359Z,77.10
2019-05-22T22:57:46.433Z,76.70
2019-05-22T23:00:20.011Z,80.50
2019-05-22T23:02:51.555Z,78.00
2019-05-22T23:05:22.288Z,77.40
2019-05-22T23:07:53.581Z,77.20
2019-05-22T23:10:24.303Z,76.90
2019-05-22T23:12:55.856Z,77.20
2019-05-22T23:15:27.823Z,76.70
2019-05-22T23:17:58.019Z,76.70
2019-05-22T23:20:29.385Z,77.20
2019-05-22T23:22:57.970Z,76.70
2019-05-22T23:25:29.443Z,77.20
2019-05-22T23:28:11.204Z,76.80
2019-05-22T23:30:41.686Z,77.10
2019-05-22T23:33:11.869Z,76.60
2019-05-22T23:35:41.390Z,77.10
2019-05-22T23:38:13.268Z,77.00
2019-05-22T23:40:45.710Z,77.30
2019-05-22T23:43:28.145Z,77.40
2019-05-22T23:45:58.420Z,77.50
2019-05-22T23:48:30.242Z,77.70
2019-05-22T23:51:00.888Z,77.30
2019-05-22T23:53:31.419Z,77.70
2019-05-22T23:56:04.127Z,77.70
2019-05-22T23:58:49.820Z,77.80
